Oazy Harbour Airport

CL-0005 · Region of Magallanes, 智利

使用的METAR站距离机场55 km。
罗盘
风向 的 风向 310°
风: 23 kt, 6 beaufort

添加一条跑道以查看侧风和逆风信息。

添置 跑道
0 ft 5.000 10.000 15.000 20.000
Cloud Cloud
FEW 3.000
Cloud Cloud Cloud Cloud Cloud Cloud
BKN 12.000
Cloud Cloud Cloud Cloud Cloud Cloud Cloud Cloud
OVC 20.000
METAR SCCI 290900Z 31023KT 9999 FEW030 BKN120 OVC200 13/08 Q1008 NOSIG

METAR Oazy Harbour Airport - CL-0005

Oazy Harbour Airport是,智利中的小机场。 该机场位于纬度-52,54270和经度-70,53500。 这个机场没有ICAO代码,我们使用CL-0005作为参考。 机场在Punta Arenas FIR中。

该航空气象观测是针对Pdte. Carlos Ibañez del Campo Airport在2024年2月29日 06:00, 当地时间进行的。

机场观察

风向为310°,速度为23 kt。

可见度为10 km 或者更多。

有几云在3.000 ft的高度, 碎云在12.000 ft的高度 和 乌云密布在20.000 ft的高度。 破损或更高的上限为12.000 ft。

温度和风寒是13 °C。 露点为8 °C,相对湿度为72%。 海平面上的气压为1008 hPa (QNH)。

白天

今天,太阳从07:08升起,在20:40降落。 这适用于Oazy Harbour Airport,世界夏令时可能有所不同。 当地时间与世界标准时间之间的时差为-3 小时。 当前,没有夏令时有效。

公司介绍

我们没有关于这个机场的公司信息。

体会

到Vliegles.nl去找飞行课程,跳伞和其他飞行体验。 浏览页面,了解Oazy Harbour Airport附近所有可用的活动。 你也可以使用搜索功能来寻找你所在地附近的特定飞行课程、跳伞或其他飞行体验。

乌云

3.000 ft FEW 几云
12.000 ft BKN 碎云
20.000 ft OVC 乌云密布

温度 & 天气

温度 13 °C
露点 8 °C
相对湿度 72%
Kp-index 0 (0-9)

白天

日出
07:09 (51m)
中午
13:55
日落
20:42

小工具

你想在你的网站上有一个关于Oazy Harbour Airport的当前航空天气(METAR)的小部件吗?

显示HTML代码
?>